createdAt,value
2022-12-03T10:13:32.931Z,48.60
2022-12-03T10:24:20.121Z,100.90
2022-12-03T10:40:39.529Z,92.40
2022-12-03T10:51:11.613Z,90.60
2022-12-03T11:01:20.844Z,85.90
2022-12-03T11:11:29.532Z,93.70
2022-12-03T11:21:35.884Z,89.90
2022-12-03T11:42:34.136Z,88.10
2022-12-03T12:13:40.919Z,91.30
2022-12-03T12:23:47.216Z,86.30
2022-12-03T12:44:15.945Z,88.70
2022-12-03T12:54:22.549Z,90.80
2022-12-03T13:14:49.050Z,88.10
2022-12-03T13:35:35.582Z,96.70
2022-12-03T13:45:44.979Z,99.30
2022-12-03T13:55:58.988Z,99.80
2022-12-03T14:06:05.351Z,99.50
2022-12-03T14:16:11.686Z,98.00
2022-12-03T14:26:18.233Z,92.80
2022-12-03T14:36:24.542Z,101.60
2022-12-03T14:46:30.762Z,102.00
2022-12-03T14:56:37.013Z,110.30
2022-12-03T15:06:43.308Z,111.70
2022-12-03T15:16:49.972Z,109.60
2022-12-03T15:26:57.045Z,118.10
2022-12-03T15:37:03.508Z,120.70
2022-12-03T15:47:09.840Z,112.20
2022-12-03T15:57:16.180Z,114.80
2022-12-03T16:07:22.479Z,119.80
2022-12-03T16:17:36.310Z,121.50
2022-12-03T16:38:05.463Z,115.50
2022-12-03T16:48:11.767Z,104.60
2022-12-03T16:58:22.272Z,115.80
2022-12-03T17:08:28.691Z,115.60
2022-12-03T17:18:34.969Z,109.20
2022-12-03T17:28:41.254Z,110.40
2022-12-03T17:38:47.497Z,107.50
2022-12-03T17:48:53.757Z,107.70
2022-12-03T17:59:00.062Z,106.10
2022-12-03T18:09:06.715Z,106.60
2022-12-03T18:19:12.952Z,103.90
2022-12-03T18:29:19.283Z,95.60
2022-12-03T18:39:40.052Z,97.50
2022-12-03T18:49:46.504Z,91.60
2022-12-03T18:59:53.193Z,87.20
2022-12-03T19:09:59.798Z,96.60
2022-12-03T19:20:07.137Z,93.50
2022-12-03T19:30:13.857Z,92.80
2022-12-03T19:40:20.159Z,99.80
2022-12-03T19:50:26.414Z,92.90
2022-12-03T20:00:32.641Z,99.50
2022-12-03T20:10:39.064Z,98.90
2022-12-03T20:20:45.406Z,98.20
2022-12-03T20:31:11.877Z,98.80
2022-12-03T20:41:22.176Z,102.10
2022-12-03T20:51:31.026Z,106.70
2022-12-03T21:01:37.573Z,107.20
2022-12-03T21:11:46.704Z,104.20
2022-12-03T21:21:52.941Z,105.00
2022-12-03T21:31:59.180Z,111.40
2022-12-03T21:42:18.910Z,124.60
2022-12-03T21:52:31.728Z,126.80
2022-12-03T22:02:40.129Z,116.60
2022-12-03T22:12:46.508Z,118.30
2022-12-03T22:22:52.786Z,109.80
2022-12-03T22:32:59.092Z,107.80
2022-12-03T22:43:05.382Z,111.10
2022-12-03T22:53:12.389Z,93.30
2022-12-03T23:03:19.082Z,90.20
2022-12-03T23:13:25.348Z,93.90
2022-12-03T23:23:31.583Z,82.50
2022-12-03T23:33:47.631Z,90.70
2022-12-03T23:43:54.150Z,87.30
2022-12-03T23:54:00.448Z,86.30
